createdAt,value
2023-03-03T00:01:47.529Z,21.92
2023-03-03T00:04:14.132Z,21.85
2023-03-03T00:06:40.706Z,21.90
2023-03-03T00:09:07.259Z,21.91
2023-03-03T00:11:33.850Z,21.89
2023-03-03T00:14:00.497Z,21.88
2023-03-03T00:16:35.441Z,21.98
2023-03-03T00:19:02.315Z,21.96
2023-03-03T00:21:32.119Z,21.99
2023-03-03T00:24:18.897Z,21.96
2023-03-03T00:26:56.974Z,21.97
2023-03-03T00:29:37.861Z,21.97
2023-03-03T00:32:21.373Z,22.01
2023-03-03T00:34:48.721Z,22.02
2023-03-03T00:37:35.699Z,22.02
2023-03-03T00:40:33.324Z,22.05
2023-03-03T00:43:00.800Z,22.01
2023-03-03T00:45:31.411Z,22.05
2023-03-03T00:47:58.572Z,22.07
2023-03-03T00:50:32.007Z,22.05
2023-03-03T00:53:03.567Z,22.02
2023-03-03T00:55:31.522Z,22.12
2023-03-03T00:57:58.660Z,22.11
2023-03-03T01:00:25.330Z,22.08
2023-03-03T01:02:52.976Z,22.09
2023-03-03T01:05:20.469Z,22.16
2023-03-03T01:07:47.094Z,22.20
2023-03-03T01:10:13.838Z,22.26
2023-03-03T01:12:40.703Z,22.23
2023-03-03T01:15:10.122Z,22.17
2023-03-03T01:17:37.375Z,22.12
2023-03-03T01:20:04.657Z,22.17
2023-03-03T01:22:31.250Z,22.21
2023-03-03T01:24:59.956Z,22.17
2023-03-03T01:27:28.647Z,22.22
2023-03-03T01:29:56.669Z,22.22
2023-03-03T01:32:25.463Z,22.22
2023-03-03T01:34:52.241Z,22.24
2023-03-03T01:37:19.648Z,22.19
2023-03-03T01:39:54.329Z,22.16
2023-03-03T01:42:21.496Z,22.19
2023-03-03T01:44:49.575Z,22.19
2023-03-03T01:47:20.463Z,22.24
2023-03-03T01:50:04.478Z,22.23
2023-03-03T01:52:37.859Z,22.26
2023-03-03T01:55:13.055Z,22.21
2023-03-03T01:57:48.240Z,22.21
2023-03-03T02:00:16.725Z,22.25
2023-03-03T02:02:44.026Z,22.26
2023-03-03T02:05:11.345Z,22.45
2023-03-03T02:07:38.516Z,22.39
2023-03-03T02:10:18.110Z,22.19
2023-03-03T02:12:48.360Z,21.92
2023-03-03T02:15:39.302Z,21.65
2023-03-03T02:18:15.443Z,21.47
2023-03-03T02:20:44.909Z,21.39
2023-03-03T02:23:16.810Z,21.20
2023-03-03T02:25:59.465Z,21.09
2023-03-03T02:28:33.116Z,20.96
2023-03-03T02:31:01.039Z,20.86
2023-03-03T02:33:28.789Z,20.79
2023-03-03T02:35:55.975Z,20.69
2023-03-03T02:38:27.704Z,20.67
2023-03-03T02:41:09.746Z,20.63
2023-03-03T02:44:02.330Z,20.64
2023-03-03T02:46:33.038Z,20.63
2023-03-03T02:48:59.618Z,20.61
2023-03-03T02:51:26.365Z,20.66
2023-03-03T02:53:52.906Z,20.65
2023-03-03T02:56:19.482Z,20.68
2023-03-03T02:58:46.067Z,20.66
2023-03-03T03:01:12.772Z,20.65
2023-03-03T03:03:39.677Z,20.61
2023-03-03T03:06:06.751Z,20.56
2023-03-03T03:08:33.342Z,20.54
2023-03-03T03:11:00.034Z,20.49
2023-03-03T03:13:26.753Z,20.39
2023-03-03T03:15:53.320Z,20.34
2023-03-03T03:18:19.926Z,20.31
2023-03-03T03:20:48.456Z,20.24
2023-03-03T03:23:15.664Z,20.20
2023-03-03T03:25:48.295Z,20.27
2023-03-03T03:28:16.842Z,20.06
2023-03-03T03:30:45.647Z,20.10
2023-03-03T03:33:12.884Z,20.16
2023-03-03T03:35:45.438Z,20.19
2023-03-03T03:38:12.912Z,20.26
2023-03-03T03:40:40.386Z,20.21
2023-03-03T03:43:07.188Z,20.19
2023-03-03T03:45:33.928Z,20.17
2023-03-03T03:48:00.560Z,20.18
2023-03-03T03:50:27.575Z,20.16
2023-03-03T03:52:54.285Z,20.14
2023-03-03T03:55:22.594Z,20.19
2023-03-03T03:57:49.279Z,20.10
2023-03-03T04:00:16.249Z,20.08
2023-03-03T04:02:42.974Z,20.11
2023-03-03T04:05:09.893Z,20.01
2023-03-03T04:07:36.435Z,20.01
2023-03-03T04:10:03.167Z,19.96
2023-03-03T04:12:29.904Z,19.96
2023-03-03T04:14:56.560Z,19.92
2023-03-03T04:17:25.103Z,20.00
2023-03-03T04:19:53.639Z,20.03
2023-03-03T04:22:20.269Z,20.04
2023-03-03T04:24:48.636Z,19.95
2023-03-03T04:27:15.620Z,19.94
2023-03-03T04:29:42.483Z,19.99
2023-03-03T04:32:09.158Z,19.90
2023-03-03T04:34:35.780Z,19.93
2023-03-03T04:37:03.039Z,19.88
2023-03-03T04:39:29.686Z,19.87
2023-03-03T04:41:56.313Z,19.92
2023-03-03T04:44:22.884Z,19.94
2023-03-03T04:46:49.453Z,19.90
2023-03-03T04:49:16.028Z,19.93
2023-03-03T04:51:42.608Z,19.90
2023-03-03T04:54:09.203Z,19.90
2023-03-03T04:56:35.846Z,19.90
2023-03-03T04:59:02.414Z,19.89
2023-03-03T05:01:29.052Z,19.89
2023-03-03T05:03:55.637Z,19.88
2023-03-03T05:06:22.282Z,19.94
2023-03-03T05:08:48.896Z,19.93
2023-03-03T05:11:15.741Z,19.96
2023-03-03T05:13:42.323Z,19.95
2023-03-03T05:16:09.177Z,19.95
2023-03-03T05:18:35.836Z,19.90
2023-03-03T05:21:02.518Z,20.00
2023-03-03T05:23:29.131Z,20.11
2023-03-03T05:25:55.828Z,20.21
2023-03-03T05:28:22.445Z,20.37
2023-03-03T05:30:49.262Z,20.54
2023-03-03T05:33:17.406Z,20.63
2023-03-03T05:35:44.401Z,20.81
2023-03-03T05:38:11.576Z,20.98
2023-03-03T05:40:38.798Z,21.08
2023-03-03T05:43:05.506Z,21.14
2023-03-03T05:45:32.366Z,21.20
2023-03-03T05:47:58.922Z,21.23
2023-03-03T05:50:25.607Z,21.27
2023-03-03T05:52:52.910Z,21.31
2023-03-03T05:55:20.188Z,21.32
2023-03-03T05:57:46.797Z,21.34
2023-03-03T06:00:14.736Z,21.38
2023-03-03T06:02:42.495Z,21.46
2023-03-03T06:05:09.641Z,21.51
2023-03-03T06:07:36.442Z,21.58
2023-03-03T06:10:03.630Z,21.60
2023-03-03T06:12:30.305Z,21.45
2023-03-03T06:14:56.886Z,21.27
2023-03-03T06:17:23.474Z,21.11
2023-03-03T06:19:50.041Z,20.98
2023-03-03T06:22:16.689Z,20.97
2023-03-03T06:24:43.358Z,20.93
2023-03-03T06:27:10.447Z,20.81
2023-03-03T06:29:37.021Z,20.66
2023-03-03T06:32:03.788Z,20.58
2023-03-03T06:34:30.815Z,20.44
2023-03-03T06:36:57.412Z,20.45
2023-03-03T06:39:23.993Z,20.44
2023-03-03T06:41:50.560Z,20.36
2023-03-03T06:44:17.296Z,20.37
2023-03-03T06:46:43.886Z,20.42
2023-03-03T06:49:10.489Z,20.43
2023-03-03T06:51:43.911Z,20.47
2023-03-03T06:54:13.496Z,20.53
2023-03-03T06:56:41.267Z,20.51
2023-03-03T06:59:17.301Z,20.50
2023-03-03T07:01:45.192Z,20.50
2023-03-03T07:04:29.333Z,20.52
2023-03-03T07:06:58.536Z,20.50
2023-03-03T07:09:29.781Z,20.49
2023-03-03T07:12:02.001Z,20.43
2023-03-03T07:14:29.567Z,20.42
2023-03-03T07:17:05.277Z,20.40
2023-03-03T07:19:34.961Z,20.33
2023-03-03T07:22:13.849Z,20.26
2023-03-03T07:24:42.359Z,20.25
2023-03-03T07:27:24.275Z,20.28
2023-03-03T07:29:53.325Z,20.25
2023-03-03T07:32:19.851Z,20.17
2023-03-03T07:34:50.998Z,20.11
2023-03-03T07:37:29.380Z,20.09
2023-03-03T07:39:56.445Z,19.99
2023-03-03T07:42:40.524Z,19.98
2023-03-03T07:45:32.445Z,19.90
2023-03-03T07:48:31.856Z,19.95
2023-03-03T07:51:04.033Z,19.90
2023-03-03T07:53:34.885Z,19.88
2023-03-03T07:56:01.979Z,19.84
2023-03-03T07:58:39.877Z,19.85
2023-03-03T08:01:42.511Z,19.85
2023-03-03T08:04:20.871Z,19.86
2023-03-03T08:06:53.377Z,19.86
2023-03-03T08:09:19.957Z,19.88
2023-03-03T08:11:55.718Z,19.98
2023-03-03T08:14:34.892Z,20.02
2023-03-03T08:17:02.321Z,20.01
2023-03-03T08:19:31.209Z,20.02
2023-03-03T08:22:15.474Z,20.05
2023-03-03T08:24:42.070Z,20.02
2023-03-03T08:27:08.658Z,20.05
2023-03-03T08:29:35.239Z,20.04
2023-03-03T08:32:01.893Z,20.01
2023-03-03T08:34:28.505Z,20.03
2023-03-03T08:36:58.119Z,20.05
2023-03-03T08:39:24.693Z,20.03
2023-03-03T08:41:51.245Z,20.01
2023-03-03T08:44:19.524Z,20.00
2023-03-03T08:46:46.275Z,19.97
2023-03-03T08:49:13.248Z,19.97
2023-03-03T08:51:40.333Z,19.96
2023-03-03T08:54:07.304Z,19.96
2023-03-03T08:56:33.934Z,19.96
2023-03-03T08:59:02.623Z,19.98
2023-03-03T09:01:31.742Z,19.94
2023-03-03T09:03:59.518Z,19.99
2023-03-03T09:06:26.081Z,19.96
2023-03-03T09:08:54.808Z,19.95
2023-03-03T09:11:27.748Z,19.95
2023-03-03T09:14:11.903Z,20.01
2023-03-03T09:16:41.683Z,19.98
2023-03-03T09:19:20.339Z,19.90
2023-03-03T09:21:46.912Z,19.87
2023-03-03T09:24:27.995Z,19.78
2023-03-03T09:26:55.260Z,19.82
2023-03-03T09:29:30.422Z,19.79
2023-03-03T09:32:00.731Z,19.79
2023-03-03T09:34:47.781Z,19.75
2023-03-03T09:37:26.534Z,19.76
2023-03-03T09:39:55.637Z,19.79
2023-03-03T09:43:01.243Z,19.79
2023-03-03T09:45:38.836Z,19.75
2023-03-03T09:48:33.492Z,19.77
2023-03-03T09:51:15.976Z,19.80
2023-03-03T09:53:51.096Z,19.82
2023-03-03T09:56:33.884Z,19.81
2023-03-03T09:59:14.744Z,19.80
2023-03-03T10:02:25.865Z,19.84
2023-03-03T10:05:14.452Z,19.86
2023-03-03T10:07:49.879Z,19.90
2023-03-03T10:10:29.788Z,19.91
2023-03-03T10:13:27.010Z,19.88
2023-03-03T10:16:32.538Z,19.83
2023-03-03T10:19:15.457Z,19.84
2023-03-03T10:21:51.183Z,19.85
2023-03-03T10:25:04.828Z,19.78
2023-03-03T10:27:31.372Z,19.74
2023-03-03T10:30:12.748Z,19.73
2023-03-03T10:32:58.170Z,19.71
2023-03-03T10:36:00.933Z,19.76
2023-03-03T10:38:55.593Z,19.71
2023-03-03T10:41:45.443Z,19.77
2023-03-03T10:44:49.123Z,19.79
2023-03-03T10:47:30.515Z,19.78
2023-03-03T10:50:34.316Z,19.80
2023-03-03T10:53:25.352Z,19.79
2023-03-03T10:56:11.483Z,19.76
2023-03-03T10:58:38.085Z,19.71
2023-03-03T11:01:24.666Z,19.70
2023-03-03T11:04:03.477Z,19.71
2023-03-03T11:06:41.046Z,19.69
2023-03-03T11:09:25.466Z,19.71
2023-03-03T11:12:10.121Z,19.67
2023-03-03T11:15:04.678Z,19.70
2023-03-03T11:17:56.143Z,19.70
2023-03-03T11:20:39.892Z,19.76
2023-03-03T11:23:15.580Z,19.74
2023-03-03T11:26:09.387Z,19.79
2023-03-03T11:28:48.019Z,19.83
2023-03-03T11:31:24.654Z,19.83
2023-03-03T11:34:06.651Z,19.89
2023-03-03T11:36:46.036Z,19.93
2023-03-03T11:39:20.451Z,19.87
2023-03-03T11:42:10.280Z,19.28
2023-03-03T11:44:49.824Z,19.49
2023-03-03T11:47:19.437Z,19.70
2023-03-03T11:49:56.260Z,19.77
2023-03-03T11:52:25.634Z,19.74
2023-03-03T11:54:55.244Z,19.78
2023-03-03T11:57:39.590Z,19.80
2023-03-03T12:00:28.251Z,19.80
2023-03-03T12:02:58.074Z,19.80
2023-03-03T12:05:54.220Z,19.79
2023-03-03T12:08:43.709Z,19.79
2023-03-03T12:11:34.094Z,19.85
2023-03-03T12:14:08.073Z,19.87
2023-03-03T12:16:57.292Z,19.88
2023-03-03T12:19:48.973Z,19.88
2023-03-03T12:22:34.230Z,19.90
2023-03-03T12:25:18.047Z,19.89
2023-03-03T12:27:50.404Z,19.88
2023-03-03T12:30:36.856Z,19.87
2023-03-03T12:33:10.936Z,19.86
2023-03-03T12:35:53.275Z,19.88
2023-03-03T12:38:45.302Z,19.87
2023-03-03T12:41:30.612Z,19.85
2023-03-03T12:44:21.206Z,19.85
2023-03-03T12:47:01.822Z,19.78
2023-03-03T12:49:48.099Z,19.78
2023-03-03T12:52:29.422Z,19.71
2023-03-03T12:55:49.215Z,19.73
2023-03-03T12:58:47.573Z,19.77
2023-03-03T13:01:35.194Z,19.80
2023-03-03T13:04:29.193Z,19.79
2023-03-03T13:07:18.173Z,19.83
2023-03-03T13:10:01.715Z,19.83
2023-03-03T13:13:12.671Z,19.79
2023-03-03T13:15:56.153Z,19.79
2023-03-03T13:18:22.983Z,19.79
2023-03-03T13:20:59.926Z,19.78
2023-03-03T13:23:48.073Z,19.80
2023-03-03T13:26:43.392Z,19.76
2023-03-03T13:29:20.564Z,19.75
2023-03-03T13:31:51.913Z,19.72
2023-03-03T13:34:36.522Z,19.70
2023-03-03T13:37:17.239Z,19.70
2023-03-03T13:40:22.132Z,19.66
2023-03-03T13:42:51.319Z,19.68
2023-03-03T13:45:25.497Z,19.66
2023-03-03T13:48:19.472Z,19.70
2023-03-03T13:51:02.485Z,19.70
2023-03-03T13:53:50.399Z,19.69
2023-03-03T13:56:43.584Z,19.74
2023-03-03T13:59:22.196Z,19.72
2023-03-03T14:01:53.852Z,19.68
2023-03-03T14:04:48.222Z,19.67
2023-03-03T14:07:23.927Z,19.73
2023-03-03T14:09:57.453Z,19.74
2023-03-03T14:12:42.487Z,19.71
2023-03-03T14:15:24.758Z,19.72
2023-03-03T14:18:09.594Z,19.69
2023-03-03T14:20:45.080Z,19.66
2023-03-03T14:23:27.853Z,19.69
2023-03-03T14:26:20.321Z,19.66
2023-03-03T14:28:49.697Z,19.63
2023-03-03T14:31:18.517Z,19.65
2023-03-03T14:33:58.215Z,19.70
2023-03-03T14:36:32.834Z,19.72
2023-03-03T14:38:59.747Z,19.66
2023-03-03T14:41:41.573Z,19.72
2023-03-03T14:44:47.194Z,19.72
2023-03-03T14:47:23.402Z,19.72
2023-03-03T14:49:51.611Z,19.70
2023-03-03T14:52:23.674Z,19.71
2023-03-03T14:54:54.026Z,19.71
2023-03-03T14:57:37.408Z,19.70
2023-03-03T15:00:28.543Z,19.65
2023-03-03T15:02:58.495Z,19.65
2023-03-03T15:05:27.978Z,19.65
2023-03-03T15:08:08.832Z,19.64
2023-03-03T15:10:35.349Z,19.59
2023-03-03T15:13:10.824Z,19.62
2023-03-03T15:15:52.637Z,19.64
2023-03-03T15:18:20.618Z,19.66
2023-03-03T15:21:26.035Z,19.64
2023-03-03T15:24:18.037Z,19.65
2023-03-03T15:26:52.375Z,19.63
2023-03-03T15:29:30.489Z,19.63
2023-03-03T15:32:22.177Z,19.63
2023-03-03T15:35:01.068Z,19.63
2023-03-03T15:37:42.359Z,19.67
2023-03-03T15:40:26.026Z,19.67
2023-03-03T15:42:55.458Z,19.65
2023-03-03T15:45:31.435Z,19.67
2023-03-03T15:48:34.127Z,19.66
2023-03-03T15:51:24.525Z,19.67
2023-03-03T15:54:03.282Z,19.66
2023-03-03T15:56:53.812Z,19.66
2023-03-03T15:59:46.372Z,19.64
2023-03-03T16:02:17.297Z,19.64
2023-03-03T16:05:16.330Z,19.68
2023-03-03T16:08:08.091Z,19.68
2023-03-03T16:10:43.630Z,19.66
2023-03-03T16:13:35.651Z,19.65
2023-03-03T16:16:43.653Z,19.68
2023-03-03T16:19:27.408Z,19.64
2023-03-03T16:22:12.597Z,19.64
2023-03-03T16:24:51.814Z,19.62
2023-03-03T16:27:30.290Z,19.64
2023-03-03T16:30:05.203Z,19.65
2023-03-03T16:32:40.246Z,19.64
2023-03-03T16:35:23.618Z,19.64
2023-03-03T16:38:06.132Z,19.60
2023-03-03T16:40:38.801Z,19.63
2023-03-03T16:43:23.520Z,19.60
2023-03-03T16:45:50.475Z,19.53
2023-03-03T16:48:31.854Z,19.52
2023-03-03T16:51:35.258Z,19.56
2023-03-03T16:54:06.513Z,19.54
2023-03-03T16:56:44.690Z,19.56
2023-03-03T16:59:30.299Z,19.53
2023-03-03T17:02:29.018Z,19.51
2023-03-03T17:05:06.179Z,19.53
2023-03-03T17:07:54.645Z,19.54
2023-03-03T17:10:32.748Z,19.49
2023-03-03T17:13:04.944Z,19.48
2023-03-03T17:15:44.935Z,19.51
2023-03-03T17:18:28.208Z,19.50
2023-03-03T17:21:00.261Z,19.54
2023-03-03T17:23:43.036Z,19.52
2023-03-03T17:26:34.992Z,19.48
2023-03-03T17:29:14.265Z,19.51
2023-03-03T17:31:59.057Z,19.54
2023-03-03T17:35:04.495Z,19.55
2023-03-03T17:37:37.007Z,19.52
2023-03-03T17:40:22.431Z,19.56
2023-03-03T17:43:15.526Z,19.54
2023-03-03T17:45:45.215Z,19.62
2023-03-03T17:48:47.280Z,19.61
2023-03-03T17:51:26.222Z,19.65
2023-03-03T17:54:12.553Z,19.60
2023-03-03T17:57:03.843Z,19.62
2023-03-03T17:59:39.295Z,19.64
2023-03-03T18:02:46.308Z,19.62
2023-03-03T18:05:54.513Z,19.58
2023-03-03T18:09:13.795Z,19.57
2023-03-03T18:12:08.173Z,19.54
2023-03-03T18:14:54.882Z,19.53
2023-03-03T18:17:46.380Z,19.56
2023-03-03T18:20:21.219Z,19.54
2023-03-03T18:22:52.549Z,19.50
2023-03-03T18:25:25.466Z,19.52
2023-03-03T18:28:01.020Z,19.54
2023-03-03T18:30:52.393Z,19.50
2023-03-03T18:33:34.919Z,19.48
2023-03-03T18:36:36.324Z,19.51
2023-03-03T18:39:05.337Z,19.50
2023-03-03T18:41:34.272Z,19.49
2023-03-03T18:44:04.596Z,19.52
2023-03-03T18:46:31.170Z,19.52
2023-03-03T18:49:18.070Z,19.48
2023-03-03T18:51:45.757Z,19.50
2023-03-03T18:54:12.376Z,19.52
2023-03-03T18:56:47.534Z,19.54
2023-03-03T18:59:53.735Z,19.51
2023-03-03T19:02:56.408Z,19.53
2023-03-03T19:05:28.635Z,19.51
2023-03-03T19:08:02.523Z,19.54
2023-03-03T19:11:01.005Z,19.53
2023-03-03T19:13:33.247Z,19.53
2023-03-03T19:16:03.995Z,19.53
2023-03-03T19:18:50.758Z,19.53
2023-03-03T19:21:37.122Z,19.57
2023-03-03T19:24:23.044Z,19.53
2023-03-03T19:26:55.690Z,19.55
2023-03-03T19:29:45.201Z,19.54
2023-03-03T19:32:40.125Z,19.52
2023-03-03T19:35:25.580Z,19.51
2023-03-03T19:38:05.850Z,19.51
2023-03-03T19:40:55.712Z,19.52
2023-03-03T19:43:58.201Z,19.52
2023-03-03T19:46:30.907Z,19.51
2023-03-03T19:49:16.319Z,19.50
2023-03-03T19:52:18.441Z,19.51
2023-03-03T19:55:22.420Z,19.51
2023-03-03T19:57:58.006Z,19.52
2023-03-03T20:00:47.214Z,19.51
2023-03-03T20:03:16.476Z,19.48
2023-03-03T20:06:00.437Z,19.47
2023-03-03T20:09:01.781Z,19.48
2023-03-03T20:11:51.613Z,19.46
2023-03-03T20:14:26.703Z,19.42
2023-03-03T20:16:58.306Z,19.44
2023-03-03T20:19:44.394Z,19.45
2023-03-03T20:22:16.672Z,19.41
2023-03-03T20:25:05.214Z,19.40
2023-03-03T20:27:52.097Z,19.41
2023-03-03T20:30:40.748Z,19.44
2023-03-03T20:33:21.148Z,19.43
2023-03-03T20:36:11.048Z,19.42
2023-03-03T20:38:55.611Z,19.40
2023-03-03T20:41:54.624Z,19.42
2023-03-03T20:44:51.075Z,19.44
2023-03-03T20:47:32.450Z,19.47
2023-03-03T20:50:09.994Z,19.50
2023-03-03T20:52:48.013Z,19.50
2023-03-03T20:55:43.702Z,19.51
2023-03-03T20:58:27.517Z,19.47
2023-03-03T21:01:26.168Z,19.47
2023-03-03T21:03:53.334Z,19.48
2023-03-03T21:06:21.049Z,19.49
2023-03-03T21:08:56.810Z,19.53
2023-03-03T21:11:32.476Z,19.54
2023-03-03T21:14:11.619Z,19.52
2023-03-03T21:16:40.508Z,19.50
2023-03-03T21:19:13.428Z,19.48
2023-03-03T21:21:42.834Z,19.51
2023-03-03T21:24:15.299Z,19.53
2023-03-03T21:26:59.681Z,19.53
2023-03-03T21:29:34.895Z,19.54
2023-03-03T21:32:06.422Z,19.52
2023-03-03T21:34:42.134Z,19.47
2023-03-03T21:37:11.486Z,19.48
2023-03-03T21:39:46.721Z,19.52
2023-03-03T21:42:19.210Z,19.51
2023-03-03T21:44:52.113Z,19.48
2023-03-03T21:47:23.519Z,19.49
2023-03-03T21:49:51.969Z,19.48
2023-03-03T21:52:20.681Z,19.46
2023-03-03T21:54:49.426Z,19.46
2023-03-03T21:57:16.693Z,19.48
2023-03-03T21:59:43.579Z,19.47
2023-03-03T22:02:10.613Z,19.49
2023-03-03T22:04:41.109Z,19.51
2023-03-03T22:07:09.114Z,19.50
2023-03-03T22:09:35.865Z,19.47
2023-03-03T22:12:02.452Z,19.43
2023-03-03T22:14:29.157Z,19.47
2023-03-03T22:16:55.813Z,19.48
2023-03-03T22:19:22.504Z,19.48
2023-03-03T22:21:50.245Z,19.45
2023-03-03T22:24:17.866Z,19.49
2023-03-03T22:26:44.453Z,19.47
2023-03-03T22:29:11.396Z,19.48
2023-03-03T22:31:37.957Z,19.48
2023-03-03T22:34:04.668Z,19.46
2023-03-03T22:36:31.272Z,19.50
2023-03-03T22:38:57.839Z,19.50
2023-03-03T22:41:24.455Z,19.52
2023-03-03T22:43:51.018Z,19.50
2023-03-03T22:46:17.643Z,19.51
2023-03-03T22:48:44.217Z,19.51
2023-03-03T22:51:10.851Z,19.55
2023-03-03T22:53:37.445Z,19.54
2023-03-03T22:56:04.212Z,19.54
2023-03-03T22:58:30.883Z,19.51
2023-03-03T23:00:57.489Z,19.54
2023-03-03T23:03:24.545Z,19.51
2023-03-03T23:05:52.065Z,19.49
2023-03-03T23:08:20.244Z,19.52
2023-03-03T23:10:47.828Z,19.50
2023-03-03T23:13:15.531Z,19.52
2023-03-03T23:15:42.349Z,19.49
2023-03-03T23:18:09.147Z,19.51
2023-03-03T23:20:36.281Z,19.50
2023-03-03T23:23:03.026Z,19.51
2023-03-03T23:25:29.986Z,19.52
2023-03-03T23:27:56.813Z,19.54
2023-03-03T23:30:24.362Z,19.49
2023-03-03T23:32:51.535Z,19.50
2023-03-03T23:35:18.882Z,19.50
2023-03-03T23:37:46.140Z,19.50
2023-03-03T23:40:14.712Z,19.48
2023-03-03T23:42:41.284Z,19.45
2023-03-03T23:45:08.609Z,19.44
2023-03-03T23:47:35.195Z,19.47
2023-03-03T23:50:01.884Z,19.45
2023-03-03T23:52:28.447Z,19.44
2023-03-03T23:54:55.047Z,19.43
2023-03-03T23:57:21.593Z,19.46
2023-03-03T23:59:48.270Z,19.48
